Time;durP1;ratioP1;P1;durP2;ratioP2;P2;SDS_P1;SDS_P2;PMS_P1;PMS_P2;Temp;Humidity;BMP_temperature;BMP_pressure;BME280_temperature;BME280_humidity;BME280_pressure;Samples;Min_cycle;Max_cycle;Signal;HPM_P1;HPM_P2
2022/03/13 00:00:50;;;;;;;19.27;13.20;;;7.70;95.50;;;;;;4892012;29;20096;-83
2022/03/13 00:03:36;;;;;;;20.85;12.68;;;;;;;;;;4904907;29;20588;-82
2022/03/13 00:06:32;;;;;;;18.60;12.80;;;7.60;95.70;;;;;;4891853;29;20043;-82
2022/03/13 00:09:21;;;;;;;18.48;11.93;;;7.60;96.10;;;;;;4919253;29;20043;-82
2022/03/13 00:12:08;;;;;;;18.65;13.15;;;7.40;96.10;;;;;;4918551;29;20182;-83
2022/03/13 00:14:55;;;;;;;20.45;13.25;;;;;;;;;;4876784;29;20090;-83
2022/03/13 00:17:39;;;;;;;19.08;12.70;;;;;;;;;;4919097;29;20039;-83
2022/03/13 00:20:24;;;;;;;19.70;12.32;;;;;;;;;;4918981;29;20127;-82
2022/03/13 00:23:09;;;;;;;18.02;12.73;;;;;;;;;;4904011;29;20091;-82
2022/03/13 00:25:54;;;;;;;17.95;11.85;;;;;;;;;;4904037;29;20044;-83
2022/03/13 00:28:39;;;;;;;19.63;11.85;;;;;;;;;;4891504;29;20096;-83
2022/03/13 00:31:24;;;;;;;18.30;13.25;;;;;;;;;;4918785;29;20504;-82
2022/03/13 00:34:09;;;;;;;22.45;13.02;;;;;;;;;;4902970;29;20047;-83
2022/03/13 00:36:53;;;;;;;18.88;12.80;;;7.50;96.60;;;;;;4903755;29;20461;-83
2022/03/13 00:39:40;;;;;;;18.35;13.60;;;;;;;;;;4904492;29;20124;-83
2022/03/13 00:42:24;;;;;;;18.33;13.35;;;;;;;;;;4918611;29;20035;-82
2022/03/13 00:45:09;;;;;;;20.42;13.45;;;7.50;96.90;;;;;;4903612;29;20179;-82
2022/03/13 00:47:53;;;;;;;20.20;12.98;;;7.50;97.20;;;;;;4890375;29;20568;-82
2022/03/13 00:50:37;;;;;;;;;;;7.50;97.30;;;;;;4918932;29;20095;-82
2022/03/13 00:53:21;;;;;;;20.95;12.55;;;7.50;97.40;;;;;;4904221;29;19922;-82
2022/03/13 00:56:06;;;;;;;18.70;12.88;;;7.50;97.30;;;;;;4890442;29;20124;-82
2022/03/13 00:58:50;;;;;;;19.52;11.90;;;7.90;97.40;;;;;;4903826;29;20531;-85
2022/03/13 01:01:34;;;;;;;;;;;7.60;97.40;;;;;;4904505;29;20043;-82
2022/03/13 01:04:19;;;;;;;20.63;12.73;;;7.60;97.40;;;;;;4904002;29;19926;-82
2022/03/13 01:07:03;;;;;;;;;;;7.50;97.30;;;;;;4903686;29;20127;-83
2022/03/13 01:09:47;;;;;;;17.95;12.32;;;8.00;97.50;;;;;;4890670;29;19922;-83
2022/03/13 01:12:33;;;;;;;18.02;11.90;;;7.50;97.40;;;;;;4903773;29;20039;-82
2022/03/13 01:15:18;;;;;;;23.52;12.73;;;8.00;97.60;;;;;;4903307;29;20413;-82
2022/03/13 01:18:02;;;;;;;17.60;12.43;;;7.60;97.70;;;;;;4903099;29;20104;-82
2022/03/13 01:20:47;;;;;;;;;;;7.60;97.70;;;;;;4904152;29;20144;-83
2022/03/13 01:23:31;;;;;;;20.23;13.15;;;7.60;97.90;;;;;;4917895;29;19930;-82
2022/03/13 01:26:21;;;;;;;20.13;13.52;;;8.00;97.90;;;;;;4917317;29;20042;-82
2022/03/13 01:29:11;;;;;;;18.58;13.07;;;7.50;97.90;;;;;;4902932;29;20039;-83
2022/03/13 01:31:55;;;;;;;21.77;13.20;;;7.50;97.90;;;;;;4903222;29;20139;-84
2022/03/13 01:34:45;;;;;;;19.52;13.07;;;7.50;98.10;;;;;;4917657;29;20245;-83
2022/03/13 01:37:35;;;;;;;20.48;13.65;;;7.50;98.20;;;;;;4917746;29;20176;-82
2022/03/13 01:40:22;;;;;;;21.77;13.52;;;7.50;98.30;;;;;;4917042;29;20039;-82
2022/03/13 01:43:06;;;;;;;21.67;13.70;;;7.50;98.40;;;;;;4902563;29;20135;-82
2022/03/13 01:45:50;;;;;;;;;;;7.40;98.50;;;;;;4917865;29;20051;-82
2022/03/13 01:48:57;;;;;;;19.80;12.75;;;8.10;99.00;;;;;;4917550;29;19921;-82
2022/03/13 01:51:42;;;;;;;19.38;13.40;;;7.40;98.60;;;;;;4917340;29;20043;-83
2022/03/13 01:54:26;;;;;;;21.25;12.50;;;7.40;98.80;;;;;;4902948;29;20102;-82
2022/03/13 01:57:18;;;;;;;18.33;12.38;;;7.30;98.90;;;;;;4902149;29;20063;-83
2022/03/13 02:00:07;;;;;;;19.70;12.93;;;7.30;99.10;;;;;;4915646;29;20043;-83
2022/03/13 02:02:52;;;;;;;19.13;14.15;;;7.30;99.30;;;;;;4916063;29;20095;-82
2022/03/13 02:05:36;;;;;;;18.50;12.82;;;7.30;99.40;;;;;;4889933;29;20495;-82
2022/03/13 02:08:22;;;;;;;20.70;13.75;;;7.30;99.50;;;;;;4889001;29;20086;-83
2022/03/13 02:11:06;;;;;;;19.95;13.73;;;7.30;99.70;;;;;;4916473;29;20038;-83
2022/03/13 02:13:53;;;;;;;21.73;14.45;;;7.30;99.80;;;;;;4901706;29;20070;-83
2022/03/13 02:16:38;;;;;;;22.65;13.30;;;7.30;99.90;;;;;;4917000;29;20096;-83
2022/03/13 02:19:22;;;;;;;20.65;13.88;;;7.20;99.90;;;;;;4916338;29;20098;-82
2022/03/13 02:22:07;;;;;;;;;;;7.20;99.90;;;;;;4902237;29;20453;-83
2022/03/13 02:24:51;;;;;;;;;;;7.30;99.90;;;;;;4917226;29;19982;-82
2022/03/13 02:27:35;;;;;;;21.83;13.65;;;7.30;99.90;;;;;;4916861;29;19918;-82
2022/03/13 02:30:24;;;;;;;21.10;13.40;;;7.30;99.90;;;;;;4915130;29;20088;-83
2022/03/13 02:33:08;;;;;;;22.42;14.55;;;7.30;99.90;;;;;;4916108;29;20047;-83
2022/03/13 02:35:55;;;;;;;21.02;13.50;;;7.30;99.90;;;;;;4915621;29;20132;-82
2022/03/13 02:38:40;;;;;;;18.42;13.25;;;;;;;;;;4916730;29;20405;-83
2022/03/13 02:41:26;;;;;;;20.95;13.18;;;;;;;;;;4914995;29;20030;-82
2022/03/13 02:44:12;;;;;;;23.27;13.93;;;7.30;99.90;;;;;;4915840;29;20078;-83
2022/03/13 02:47:00;;;;;;;19.55;13.15;;;7.20;99.90;;;;;;4915386;29;20393;-82
2022/03/13 02:49:44;;;;;;;22.33;13.80;;;7.90;99.90;;;;;;4915500;29;20062;-83
2022/03/13 02:52:28;;;;;;;20.85;13.32;;;7.30;99.90;;;;;;4914824;29;20042;-82
2022/03/13 02:55:12;;;;;;;;;;;7.30;99.90;;;;;;4914911;29;20063;-83
2022/03/13 02:57:57;;;;;;;20.02;13.05;;;7.30;99.90;;;;;;4925994;29;20347;-83
2022/03/13 03:00:49;;;;;;;20.38;13.25;;;7.20;99.90;;;;;;4935262;29;20099;-83
2022/03/13 03:03:34;;;;;;;20.02;14.70;;;7.30;99.90;;;;;;4935114;29;20058;-83
2022/03/13 03:06:18;;;;;;;18.38;13.27;;;7.30;99.90;;;;;;4907013;29;20043;-82
2022/03/13 03:09:03;;;;;;;20.70;13.00;;;7.30;99.90;;;;;;4935226;29;20046;-82
2022/03/13 03:11:48;;;;;;;21.05;13.77;;;7.30;99.90;;;;;;4920692;29;20114;-82
2022/03/13 03:14:34;;;;;;;21.48;13.82;;;7.30;99.90;;;;;;4920126;29;20099;-82
2022/03/13 03:17:18;;;;;;;15.88;12.40;;;7.40;99.90;;;;;;4934519;29;20066;-83
2022/03/13 03:20:05;;;;;;;;;;;7.40;99.90;;;;;;4921054;29;20043;-82
2022/03/13 03:22:51;;;;;;;20.98;14.15;;;7.30;99.90;;;;;;4920930;29;19921;-83
2022/03/13 03:25:36;;;;;;;20.92;14.02;;;7.40;99.90;;;;;;4920371;29;20515;-82
2022/03/13 03:28:21;;;;;;;22.33;13.32;;;8.50;99.90;;;;;;4920168;29;20400;-82
2022/03/13 03:31:06;;;;;;;19.08;13.73;;;7.40;99.90;;;;;;4920558;29;20534;-82
2022/03/13 03:33:50;;;;;;;19.40;13.30;;;7.40;99.90;;;;;;4934926;29;20051;-82
2022/03/13 03:36:39;;;;;;;21.60;14.27;;;7.40;99.90;;;;;;4934402;29;20502;-82
2022/03/13 03:39:25;;;;;;;20.27;13.60;;;7.40;99.90;;;;;;4920006;29;20074;-82
2022/03/13 03:42:09;;;;;;;18.10;12.82;;;7.50;99.90;;;;;;4920605;29;20560;-82
2022/03/13 03:44:53;;;;;;;21.05;13.00;;;7.30;99.90;;;;;;4920312;29;20051;-82
2022/03/13 03:47:38;;;;;;;19.55;13.38;;;7.40;99.90;;;;;;4934566;29;20043;-82
2022/03/13 03:50:22;;;;;;;;;;;7.40;99.90;;;;;;4920341;29;20047;-82
2022/03/13 03:53:06;;;;;;;20.58;13.75;;;7.40;99.90;;;;;;4920547;29;19918;-82
2022/03/13 03:55:50;;;;;;;18.77;13.45;;;7.40;99.90;;;;;;4920560;29;20046;-82
2022/03/13 03:58:34;;;;;;;21.98;14.73;;;7.30;99.90;;;;;;4919568;29;20079;-82
2022/03/13 04:01:19;;;;;;;19.63;13.43;;;7.30;99.90;;;;;;4906455;29;20111;-83
2022/03/13 04:04:08;;;;;;;20.42;14.15;;;8.60;99.90;;;;;;4893345;29;20063;-83
2022/03/13 04:06:53;;;;;;;22.67;13.30;;;7.30;99.90;;;;;;4934638;29;20103;-83
2022/03/13 04:09:37;;;;;;;24.23;14.07;;;7.20;99.90;;;;;;4909742;29;20161;-83
2022/03/13 04:12:22;;;;;;;23.05;13.07;;;7.10;99.90;;;;;;4909900;29;20127;-83
2022/03/13 04:15:07;;;;;;;18.98;12.88;;;7.10;99.90;;;;;;4938146;29;20050;-82
2022/03/13 04:17:55;;;;;;;19.27;13.52;;;7.00;99.90;;;;;;4938110;29;20585;-82
2022/03/13 04:20:39;;;;;;;21.83;14.05;;;;;;;;;;4897331;29;20094;-82
2022/03/13 04:23:23;;;;;;;19.90;13.68;;;6.90;99.90;;;;;;4937409;29;20538;-83
2022/03/13 04:26:08;;;;;;;;;;;6.90;99.90;;;;;;4923875;29;20038;-82
2022/03/13 04:28:52;;;;;;;;;;;7.90;99.90;;;;;;4938250;29;19918;-83
2022/03/13 04:31:40;;;;;;;21.38;13.75;;;6.70;99.90;;;;;;4937259;29;19917;-83
2022/03/13 04:34:24;;;;;;;18.08;13.35;;;6.70;99.90;;;;;;4922791;29;20042;-83
2022/03/13 04:37:10;;;;;;;22.95;15.02;;;6.70;99.90;;;;;;4910073;29;20090;-82
2022/03/13 04:39:54;;;;;;;20.52;13.10;;;6.60;99.90;;;;;;4923243;29;20042;-82
2022/03/13 04:42:38;;;;;;;;;;;6.60;99.90;;;;;;4937469;29;20047;-83
2022/03/13 04:45:24;;;;;;;14.98;10.40;;;6.60;99.90;;;;;;4937129;29;19973;-84
2022/03/13 04:48:09;;;;;;;22.77;13.55;;;6.50;99.90;;;;;;4897090;29;20503;-83
2022/03/13 04:50:53;;;;;;;21.70;14.60;;;;;;;;;;4909633;29;20047;-82
2022/03/13 04:53:38;;;;;;;21.23;13.05;;;6.50;99.90;;;;;;4922410;29;20094;-83
2022/03/13 04:56:22;;;;;;;17.77;12.98;;;;;;;;;;4922720;29;20078;-84
2022/03/13 04:59:07;;;;;;;21.98;14.35;;;6.50;99.90;;;;;;4937628;29;20174;-82
2022/03/13 05:01:52;;;;;;;19.77;14.65;;;;;;;;;;4922899;29;20054;-83
2022/03/13 05:04:38;;;;;;;21.83;14.60;;;6.40;99.90;;;;;;4922176;29;20127;-83
2022/03/13 05:07:23;;;;;;;20.40;14.38;;;7.60;99.90;;;;;;4896601;29;20038;-84
2022/03/13 05:10:07;;;;;;;23.00;15.00;;;6.20;99.90;;;;;;4922752;29;20111;-82
2022/03/13 05:12:52;;;;;;;20.70;14.75;;;6.20;99.90;;;;;;4901989;29;20063;-83
2022/03/13 05:15:36;;;;;;;23.80;14.32;;;6.20;99.90;;;;;;4908813;29;20038;-83
2022/03/13 05:18:21;;;;;;;24.25;14.43;;;;;;;;;;4909012;29;20555;-82
2022/03/13 05:21:05;;;;;;;19.42;14.05;;;6.20;99.90;;;;;;4936930;29;20502;-82
2022/03/13 05:23:50;;;;;;;21.10;14.27;;;;;;;;;;4936431;29;20152;-82
2022/03/13 05:26:34;;;;;;;24.10;14.77;;;6.10;99.90;;;;;;4921915;29;20102;-82
2022/03/13 05:29:18;;;;;;;20.35;14.40;;;6.10;99.90;;;;;;4909052;29;20461;-82
2022/03/13 05:32:02;;;;;;;;;;;6.90;99.90;;;;;;4922684;29;20046;-82
2022/03/13 05:34:47;;;;;;;19.98;14.05;;;6.00;99.90;;;;;;4921722;29;20397;-83
2022/03/13 05:37:31;;;;;;;20.20;14.48;;;6.00;99.90;;;;;;4908376;29;20051;-83
2022/03/13 05:40:17;;;;;;;;;;;7.30;99.90;;;;;;4937111;29;20081;-83
2022/03/13 05:43:02;;;;;;;19.08;13.50;;;5.90;99.90;;;;;;4936603;29;19925;-82
2022/03/13 05:45:46;;;;;;;20.77;13.20;;;5.90;99.90;;;;;;4935773;29;20507;-83
2022/03/13 05:48:31;;;;;;;18.92;12.32;;;5.90;99.90;;;;;;4908222;29;20091;-84
2022/03/13 05:51:16;;;;;;;20.27;13.10;;;6.00;99.90;;;;;;4908874;29;20042;-82
2022/03/13 05:54:00;;;;;;;;;;;6.00;99.90;;;;;;4922414;29;20050;-82
2022/03/13 05:56:45;;;;;;;19.98;13.50;;;6.50;99.90;;;;;;4921319;29;19922;-82
2022/03/13 05:59:30;;;;;;;19.65;12.55;;;6.00;99.90;;;;;;4921794;29;20619;-84
2022/03/13 06:02:14;;;;;;;20.35;12.50;;;6.00;99.90;;;;;;4895300;29;20098;-83
2022/03/13 06:04:58;;;;;;;19.05;12.77;;;6.10;99.90;;;;;;4921624;29;20070;-82
2022/03/13 06:07:42;;;;;;;;;;;6.00;99.90;;;;;;4921561;29;20150;-83
2022/03/13 06:10:27;;;;;;;17.83;12.30;;;6.00;99.90;;;;;;4921736;29;19938;-83
2022/03/13 06:13:14;;;;;;;20.40;12.43;;;6.00;99.90;;;;;;4921649;29;20045;-83
2022/03/13 06:15:58;;;;;;;20.42;12.45;;;7.00;99.90;;;;;;4901722;29;20043;-82
2022/03/13 06:18:43;;;;;;;19.52;12.63;;;6.10;99.90;;;;;;4921001;29;20408;-83
2022/03/13 06:21:27;;;;;;;16.90;11.70;;;6.70;99.90;;;;;;4908274;29;20057;-83
2022/03/13 06:24:12;;;;;;;19.75;13.05;;;;;;;;;;4921442;29;20103;-82
2022/03/13 06:26:56;;;;;;;21.17;12.07;;;6.00;99.90;;;;;;4935192;29;20042;-83
2022/03/13 06:29:40;;;;;;;;;;;6.10;99.90;;;;;;4920213;29;20039;-81
2022/03/13 06:32:27;;;;;;;19.08;12.23;;;6.10;99.90;;;;;;4934826;29;19917;-82
2022/03/13 06:35:13;;;;;;;18.45;12.82;;;6.10;99.90;;;;;;4930633;29;20058;-82
2022/03/13 06:37:57;;;;;;;20.02;12.32;;;7.50;99.90;;;;;;4934982;29;20038;-82
2022/03/13 06:40:42;;;;;;;21.90;13.20;;;6.20;99.90;;;;;;4907363;29;20503;-82
2022/03/13 06:43:26;;;;;;;21.25;11.88;;;6.20;99.90;;;;;;4907848;29;20051;-82
2022/03/13 06:46:11;;;;;;;19.67;11.70;;;7.60;99.90;;;;;;4935652;29;20130;-83
2022/03/13 06:48:55;;;;;;;23.40;12.05;;;8.00;99.90;;;;;;4907188;29;20219;-83
2022/03/13 06:51:40;;;;;;;22.38;11.65;;;7.00;99.90;;;;;;4934969;29;20039;-84
2022/03/13 06:54:24;;;;;;;20.20;12.05;;;6.30;99.70;;;;;;4929757;29;20107;-83
2022/03/13 06:57:08;;;;;;;20.42;12.25;;;6.70;99.50;;;;;;4874838;29;20072;-82
2022/03/13 06:59:53;;;;;;;18.38;11.68;;;6.40;99.20;;;;;;4896915;29;20044;-82
2022/03/13 07:02:37;;;;;;;19.42;11.75;;;6.40;99.10;;;;;;4896559;29;20040;-83
2022/03/13 07:05:21;;;;;;;19.00;10.55;;;6.40;99.00;;;;;;4896645;29;20063;-82
2022/03/13 07:08:05;;;;;;;17.55;12.05;;;6.40;98.80;;;;;;4897218;29;20047;-83
2022/03/13 07:10:50;;;;;;;;;;;6.50;98.60;;;;;;4896110;29;20071;-83
2022/03/13 07:13:34;;;;;;;18.50;11.65;;;6.50;98.20;;;;;;4901076;29;20081;-83
2022/03/13 07:16:19;;;;;;;17.02;11.20;;;6.50;98.40;;;;;;4901500;29;20047;-82
2022/03/13 07:19:03;;;;;;;15.98;10.38;;;6.60;98.20;;;;;;4913736;29;20047;-82
2022/03/13 07:21:47;;;;;;;16.30;10.80;;;6.60;98.00;;;;;;4900626;29;20046;-82
2022/03/13 07:24:31;;;;;;;;;;;6.70;97.80;;;;;;4914294;29;20082;-82
2022/03/13 07:27:16;;;;;;;18.60;11.02;;;6.80;97.70;;;;;;4900745;29;19962;-82
2022/03/13 07:30:00;;;;;;;18.75;11.85;;;6.90;97.50;;;;;;4900569;29;20079;-82
2022/03/13 07:32:45;;;;;;;19.23;11.55;;;8.40;97.60;;;;;;4900436;29;20047;-83
2022/03/13 07:35:29;;;;;;;18.20;10.77;;;7.10;97.00;;;;;;4888673;29;20392;-81
2022/03/13 07:38:14;;;;;;;16.67;10.93;;;7.30;96.70;;;;;;4888361;29;20139;-83
2022/03/13 07:40:58;;;;;;;18.50;11.25;;;7.30;96.40;;;;;;4899971;29;20047;-83
2022/03/13 07:43:42;;;;;;;17.90;12.43;;;7.40;96.40;;;;;;4905147;29;20055;-82
2022/03/13 07:46:27;;;;;;;18.63;11.57;;;7.50;96.10;;;;;;4905383;29;20432;-83
2022/03/13 07:49:11;;;;;;;15.65;10.98;;;7.50;95.40;;;;;;4878976;29;20055;-83
2022/03/13 07:51:56;;;;;;;17.50;11.27;;;7.90;95.70;;;;;;4904654;29;20039;-83
2022/03/13 07:54:40;;;;;;;18.40;10.80;;;8.50;94.60;;;;;;4892092;29;20107;-82
2022/03/13 07:57:24;;;;;;;;;;;9.00;93.10;;;;;;4919863;29;20516;-83
2022/03/13 08:00:15;;;;;;;16.38;10.40;;;9.20;92.70;;;;;;4904481;29;19922;-83
2022/03/13 08:02:59;;;;;;;17.52;11.27;;;9.20;92.20;;;;;;4918771;29;20114;-82
2022/03/13 08:05:43;;;;;;;;;;;9.20;91.50;;;;;;4919831;29;20047;-83
2022/03/13 08:08:27;;;;;;;16.65;11.05;;;9.20;91.20;;;;;;4891618;29;19971;-83
2022/03/13 08:11:12;;;;;;;14.82;10.57;;;9.60;91.70;;;;;;4918390;29;20119;-87
2022/03/13 08:13:56;;;;;;;16.77;10.63;;;9.40;91.00;;;;;;4918099;29;20100;-83
2022/03/13 08:16:40;;;;;;;;;;;9.30;90.70;;;;;;4919502;29;20046;-82
2022/03/13 08:19:24;;;;;;;16.17;10.80;;;9.30;90.60;;;;;;4904653;29;20283;-82
2022/03/13 08:22:09;;;;;;;15.98;10.68;;;9.40;90.70;;;;;;4904207;29;20047;-83
2022/03/13 08:24:53;;;;;;;;;;;9.50;90.60;;;;;;4904358;29;20136;-84
2022/03/13 08:27:37;;;;;;;15.93;10.35;;;9.70;90.50;;;;;;4904651;29;20010;-83
2022/03/13 08:30:22;;;;;;;;;;;10.10;90.60;;;;;;4919432;29;20508;-83
2022/03/13 08:33:07;;;;;;;16.55;10.27;;;10.60;89.00;;;;;;4918240;29;20395;-82
2022/03/13 08:35:51;;;;;;;15.85;10.38;;;10.90;83.80;;;;;;4890876;29;20054;-87
2022/03/13 08:38:35;;;;;;;;;;;11.00;82.20;;;;;;4919250;29;20444;-84
2022/03/13 08:41:19;;;;;;;14.65;10.55;;;10.90;79.50;;;;;;4904548;29;19965;-84
2022/03/13 08:44:04;;;;;;;14.95;10.50;;;10.80;81.20;;;;;;4890610;29;20127;-83
2022/03/13 08:46:49;;;;;;;16.70;9.98;;;;;;;;;;4918597;29;20095;-83
2022/03/13 08:49:33;;;;;;;14.45;10.25;;;10.70;79.50;;;;;;4904176;29;20047;-83
2022/03/13 08:52:17;;;;;;;;;;;10.70;78.30;;;;;;4890928;29;20123;-82
2022/03/13 08:55:03;;;;;;;14.73;10.55;;;10.60;80.90;;;;;;4917176;29;19926;-83
2022/03/13 08:57:47;;;;;;;18.67;11.13;;;10.70;77.50;;;;;;4918440;29;20059;-83
2022/03/13 09:00:36;;;;;;;;;;;10.80;77.50;;;;;;4891220;29;20050;-84
2022/03/13 09:03:21;;;;;;;14.80;9.75;;;;;;;;;;4917994;29;20287;-86
2022/03/13 09:06:05;;;;;;;16.25;10.52;;;;;;;;;;4917111;29;20047;-85
2022/03/13 09:08:49;;;;;;;16.75;10.05;;;11.20;76.20;;;;;;4887804;29;20043;-85
2022/03/13 09:11:34;;;;;;;16.40;10.18;;;;;;;;;;4877343;29;20052;-82
2022/03/13 09:14:19;;;;;;;15.43;10.52;;;;;;;;;;4917648;29;20059;-87
2022/03/13 09:17:04;;;;;;;18.90;10.50;;;11.40;72.90;;;;;;4884164;29;20039;-87
2022/03/13 09:19:48;;;;;;;12.90;9.73;;;11.30;72.50;;;;;;4916581;29;20061;-86
2022/03/13 09:22:35;;;;;;;15.43;9.57;;;11.90;72.70;;;;;;4903129;29;20495;-86
2022/03/13 09:25:20;;;;;;;15.35;10.50;;;;;;;;;;4901827;29;20051;-91
2022/03/13 09:28:04;;;;;;;15.30;10.20;;;11.40;71.50;;;;;;4917058;29;20167;-87
2022/03/13 09:30:49;;;;;;;14.70;10.52;;;11.60;71.90;;;;;;4890699;29;20039;-85
2022/03/13 09:33:33;;;;;;;15.88;10.35;;;;;;;;;;4903136;29;20051;-86
2022/03/13 09:36:19;;;;;;;15.65;9.75;;;;;;;;;;4902781;29;20043;-83
2022/03/13 09:39:07;;;;;;;14.45;9.75;;;11.70;74.30;;;;;;4914929;29;20042;-83
2022/03/13 09:41:52;;;;;;;15.82;9.77;;;12.10;70.00;;;;;;4888827;29;20071;-83
2022/03/13 09:44:37;;;;;;;15.07;10.52;;;12.20;69.80;;;;;;4901493;29;20059;-83
2022/03/13 09:47:21;;;;;;;18.08;10.60;;;12.30;68.50;;;;;;4902638;29;20635;-82
2022/03/13 09:50:07;;;;;;;14.70;11.50;;;12.50;68.10;;;;;;4889451;29;20043;-83
2022/03/13 09:52:52;;;;;;;19.88;11.25;;;;;;;;;;4917344;29;20078;-83
2022/03/13 09:55:36;;;;;;;14.77;9.88;;;12.80;65.50;;;;;;4903090;29;20515;-83
2022/03/13 09:58:20;;;;;;;16.45;10.48;;;13.00;66.00;;;;;;4902374;29;20063;-83
2022/03/13 10:01:07;;;;;;;15.00;9.95;;;13.10;65.30;;;;;;4889154;29;20131;-83
2022/03/13 10:03:51;;;;;;;16.50;10.68;;;13.10;65.40;;;;;;4902790;29;20516;-83
2022/03/13 10:07:06;;;;;;;14.52;9.98;;;13.20;65.00;;;;;;4917093;29;20047;-83
2022/03/13 10:09:51;;;;;;;15.18;9.88;;;;;;;;;;4917137;29;20079;-83
2022/03/13 10:12:40;;;;;;;14.07;10.27;;;13.50;64.20;;;;;;4917168;29;20487;-84
2022/03/13 10:15:25;;;;;;;16.58;10.50;;;13.80;62.70;;;;;;4916345;29;20054;-83
2022/03/13 10:18:11;;;;;;;15.80;10.57;;;13.70;62.90;;;;;;4902096;29;20043;-83
2022/03/13 10:20:56;;;;;;;15.40;10.43;;;13.60;63.30;;;;;;4916833;29;20485;-82
2022/03/13 10:23:40;;;;;;;14.25;10.57;;;13.80;62.80;;;;;;4889298;29;20107;-83
2022/03/13 10:26:30;;;;;;;14.73;10.27;;;14.00;61.50;;;;;;4916193;29;20520;-83
2022/03/13 10:29:30;;;;;;;15.88;10.70;;;14.00;62.00;;;;;;4901875;29;20038;-83
2022/03/13 10:32:15;;;;;;;14.18;10.23;;;14.10;61.60;;;;;;4901807;29;20051;-84
2022/03/13 10:35:01;;;;;;;15.38;10.65;;;14.20;62.10;;;;;;4902325;29;20135;-83
2022/03/13 10:37:45;;;;;;;15.60;10.88;;;14.30;61.50;;;;;;4916825;29;20172;-83
2022/03/13 10:40:33;;;;;;;15.05;9.80;;;14.40;61.20;;;;;;4901750;29;20107;-83
2022/03/13 10:43:26;;;;;;;16.27;11.23;;;14.50;61.00;;;;;;4901634;29;20526;-83
2022/03/13 10:46:15;;;;;;;13.35;10.25;;;14.60;61.10;;;;;;4902735;29;20469;-84
2022/03/13 10:49:01;;;;;;;16.38;10.73;;;14.80;60.80;;;;;;4902189;29;20043;-83
2022/03/13 10:51:46;;;;;;;15.13;10.50;;;15.00;61.20;;;;;;4916437;29;20062;-83
2022/03/13 10:54:37;;;;;;;13.73;9.95;;;15.50;59.50;;;;;;4915893;29;20091;-83
2022/03/13 10:57:22;;;;;;;15.60;10.10;;;16.00;58.30;;;;;;4901342;29;20405;-83
2022/03/13 11:00:15;;;;;;;15.27;10.73;;;16.40;57.00;;;;;;4916468;29;20095;-82
2022/03/13 11:03:14;;;;;;;15.80;10.27;;;16.70;55.60;;;;;;4916244;29;20087;-83
2022/03/13 11:05:58;;;;;;;17.92;10.98;;;16.90;56.10;;;;;;4889134;29;20063;-83
2022/03/13 11:08:43;;;;;;;15.75;9.82;;;16.90;55.60;;;;;;4901913;29;20055;-82
2022/03/13 11:11:28;;;;;;;14.70;10.32;;;16.00;70.10;;;;;;4901334;29;20404;-83
2022/03/13 11:14:16;;;;;;;14.27;10.05;;;16.60;55.80;;;;;;4915569;29;20043;-86
2022/03/13 11:17:02;;;;;;;14.57;10.73;;;16.60;55.30;;;;;;4915661;29;20103;-83
2022/03/13 11:19:51;;;;;;;17.23;10.45;;;16.50;54.90;;;;;;4916212;29;20119;-83
2022/03/13 11:22:36;;;;;;;15.00;10.38;;;16.70;56.00;;;;;;4901349;29;20104;-83
2022/03/13 11:25:22;;;;;;;15.88;10.10;;;16.60;56.90;;;;;;4915424;29;20521;-83
2022/03/13 11:28:07;;;;;;;19.33;10.65;;;16.80;54.70;;;;;;4916045;29;20044;-83
2022/03/13 11:30:51;;;;;;;15.20;9.48;;;16.80;54.50;;;;;;4888535;29;20174;-83
2022/03/13 11:33:44;;;;;;;16.13;10.48;;;16.80;53.80;;;;;;4901088;29;20095;-83
2022/03/13 11:36:32;;;;;;;14.30;10.00;;;16.80;53.70;;;;;;4888846;29;20092;-83
2022/03/13 11:39:31;;;;;;;14.18;10.65;;;16.80;70.40;;;;;;4915412;29;20082;-84
2022/03/13 11:42:23;;;;;;;14.93;10.35;;;16.80;53.80;;;;;;4915311;29;20175;-85
2022/03/13 11:45:32;;;;;;;13.88;9.73;;;16.70;59.00;;;;;;4901547;29;20051;-83
2022/03/13 11:48:19;;;;;;;15.63;9.55;;;;;;;;;;4915346;29;20058;-84
2022/03/13 11:51:05;;;;;;;16.52;10.85;;;16.80;53.80;;;;;;4915752;29;20046;-84
2022/03/13 11:53:49;;;;;;;16.35;9.57;;;16.80;54.20;;;;;;4888324;29;20421;-83
2022/03/13 11:56:46;;;;;;;19.25;10.77;;;17.10;56.10;;;;;;4887802;29;20127;-83
2022/03/13 11:59:31;;;;;;;14.98;10.73;;;17.00;66.00;;;;;;4915298;29;20176;-84
2022/03/13 12:02:40;;;;;;;14.57;10.23;;;17.00;62.00;;;;;;4915803;29;20039;-83
2022/03/13 12:05:28;;;;;;;13.70;9.60;;;16.50;71.40;;;;;;4915143;29;20043;-84
2022/03/13 12:08:16;;;;;;;14.07;10.93;;;17.00;52.90;;;;;;4901461;29;20417;-83
2022/03/13 12:11:00;;;;;;;16.33;10.68;;;17.00;53.70;;;;;;4901812;29;20047;-84
2022/03/13 12:13:48;;;;;;;15.40;10.38;;;17.10;54.00;;;;;;4888179;29;20055;-83
2022/03/13 12:16:35;;;;;;;14.93;10.90;;;17.20;53.70;;;;;;4900822;29;20095;-83
2022/03/13 12:19:19;;;;;;;19.25;11.68;;;17.20;52.60;;;;;;4915342;29;20047;-85
2022/03/13 12:22:05;;;;;;;16.95;10.13;;;17.20;52.40;;;;;;4888141;29;20083;-84
2022/03/13 12:25:01;;;;;;;17.08;11.13;;;17.10;52.10;;;;;;4888112;29;20051;-83
2022/03/13 12:27:45;;;;;;;15.00;10.70;;;17.10;52.40;;;;;;4900960;29;20453;-83
2022/03/13 12:30:34;;;;;;;13.65;10.80;;;17.20;52.20;;;;;;4890277;29;20042;-83
2022/03/13 12:33:19;;;;;;;16.92;11.20;;;17.10;52.30;;;;;;4918808;29;20046;-83
2022/03/13 12:36:04;;;;;;;16.02;12.10;;;17.20;52.00;;;;;;4918677;29;20047;-84
2022/03/13 12:38:49;;;;;;;17.00;11.23;;;17.20;51.60;;;;;;4918811;29;20059;-83
2022/03/13 12:41:34;;;;;;;16.25;11.77;;;17.20;51.30;;;;;;4903801;29;20552;-83
2022/03/13 12:44:20;;;;;;;15.27;10.98;;;17.30;51.40;;;;;;4904252;29;20055;-83
2022/03/13 12:47:04;;;;;;;20.38;11.90;;;17.30;51.00;;;;;;4904437;29;20043;-81
2022/03/13 12:49:57;;;;;;;16.88;11.10;;;17.30;50.80;;;;;;4918310;29;20126;-81
2022/03/13 12:52:42;;;;;;;16.33;11.25;;;17.30;52.50;;;;;;4917810;29;20102;-81
2022/03/13 12:55:27;;;;;;;16.65;11.23;;;17.30;50.20;;;;;;4903640;29;20047;-81
2022/03/13 12:58:11;;;;;;;17.25;12.00;;;17.20;50.20;;;;;;4890636;29;20090;-81
2022/03/13 13:00:56;;;;;;;15.88;11.45;;;17.20;50.90;;;;;;4903710;29;20091;-82
2022/03/13 13:03:52;;;;;;;16.98;11.52;;;17.10;50.50;;;;;;4890079;29;20055;-80
2022/03/13 13:06:36;;;;;;;14.50;11.75;;;17.10;50.30;;;;;;4917588;29;20130;-80
2022/03/13 13:09:31;;;;;;;20.30;12.50;;;17.10;50.10;;;;;;4918370;29;20051;-80
2022/03/13 13:12:20;;;;;;;16.85;11.30;;;17.10;49.90;;;;;;4918114;29;20043;-81
2022/03/13 13:15:08;;;;;;;15.43;10.77;;;17.10;50.00;;;;;;4917779;29;20123;-81
2022/03/13 13:17:52;;;;;;;15.20;10.70;;;17.10;49.90;;;;;;4917706;29;20148;-80
2022/03/13 13:20:38;;;;;;;15.25;11.00;;;17.10;50.30;;;;;;4902904;29;20043;-81
2022/03/13 13:23:29;;;;;;;14.77;10.65;;;17.20;51.20;;;;;;4903329;29;20047;-80
2022/03/13 13:26:13;;;;;;;16.15;11.05;;;17.40;50.90;;;;;;4903492;29;20047;-81
2022/03/13 13:28:58;;;;;;;15.68;10.55;;;17.50;50.80;;;;;;4902790;29;20051;-81
2022/03/13 13:31:43;;;;;;;15.43;10.88;;;17.60;50.70;;;;;;4902425;29;20071;-83
2022/03/13 13:34:27;;;;;;;14.30;10.35;;;17.80;50.40;;;;;;4902965;29;20548;-82
2022/03/13 13:37:12;;;;;;;13.75;9.98;;;17.70;50.20;;;;;;4902466;29;20042;-83
2022/03/13 13:40:05;;;;;;;14.05;10.57;;;17.80;50.40;;;;;;4889746;29;20100;-82
2022/03/13 13:42:55;;;;;;;12.98;10.43;;;17.90;49.80;;;;;;4917931;29;20044;-82
2022/03/13 13:45:47;;;;;;;13.35;10.43;;;17.80;49.70;;;;;;4916733;29;20417;-82
2022/03/13 13:48:32;;;;;;;14.35;10.27;;;17.70;49.80;;;;;;4900775;29;20039;-83
2022/03/13 13:51:27;;;;;;;14.73;10.90;;;17.80;49.90;;;;;;4915329;29;20119;-83
2022/03/13 13:54:14;;;;;;;14.57;10.40;;;17.70;50.10;;;;;;4916995;29;20448;-85
2022/03/13 13:57:00;;;;;;;16.95;11.23;;;17.70;50.20;;;;;;4917229;29;20513;-83
2022/03/13 13:59:44;;;;;;;14.68;10.10;;;17.60;50.20;;;;;;4916336;29;20059;-82
2022/03/13 14:02:29;;;;;;;12.52;9.00;;;17.60;50.30;;;;;;4902777;29;20062;-82
2022/03/13 14:05:13;;;;;;;14.02;9.90;;;17.50;50.20;;;;;;4889825;29;20120;-82
2022/03/13 14:07:56;;;;;;;12.55;9.35;;;17.50;50.30;;;;;;4902451;29;20119;-82
2022/03/13 14:10:42;;;;;;;15.63;10.43;;;17.50;50.60;;;;;;4902267;29;20092;-82
2022/03/13 14:13:29;;;;;;;12.05;9.27;;;17.60;50.80;;;;;;4889566;29;20082;-82
2022/03/13 14:16:17;;;;;;;12.82;9.10;;;17.60;50.50;;;;;;4917056;29;20058;-84
2022/03/13 14:19:01;;;;;;;13.88;9.43;;;17.60;50.50;;;;;;4902750;29;20047;-82
2022/03/13 14:21:46;;;;;;;15.02;9.82;;;17.60;50.40;;;;;;4902056;29;20083;-81
2022/03/13 14:24:33;;;;;;;14.85;10.00;;;17.60;49.90;;;;;;4902040;29;20507;-83
2022/03/13 14:27:17;;;;;;;13.93;9.18;;;17.50;49.30;;;;;;4889277;29;20092;-81
2022/03/13 14:30:02;;;;;;;14.00;9.60;;;17.40;49.20;;;;;;4888558;29;20099;-81